createdAt,value
2022-10-26T00:01:58.462Z,3.78
2022-10-26T00:05:02.199Z,4.32
2022-10-26T00:08:06.473Z,4.68
2022-10-26T00:11:13.185Z,4.35
2022-10-26T00:14:16.822Z,3.70
2022-10-26T00:17:20.495Z,4.00
2022-10-26T00:20:24.096Z,3.55
2022-10-26T00:23:27.703Z,4.28
2022-10-26T00:26:33.306Z,3.67
2022-10-26T00:29:36.939Z,3.30
2022-10-26T00:36:04.298Z,3.78
2022-10-26T00:39:07.888Z,4.05
2022-10-26T00:42:14.810Z,4.25
2022-10-26T00:45:22.650Z,3.85
2022-10-26T00:48:29.938Z,4.32
2022-10-26T00:51:38.402Z,4.43
2022-10-26T00:54:42.418Z,4.38
2022-10-26T01:00:52.529Z,4.47
2022-10-26T01:03:56.886Z,4.80
2022-10-26T01:07:01.937Z,4.85
2022-10-26T01:10:06.607Z,4.85
2022-10-26T01:13:13.191Z,5.43
2022-10-26T01:16:33.747Z,5.75
2022-10-26T01:20:17.023Z,5.53
2022-10-26T01:23:26.906Z,5.22
2022-10-26T01:27:03.483Z,5.22
2022-10-26T01:30:21.539Z,5.40
2022-10-26T01:33:33.921Z,6.60
2022-10-26T01:36:44.104Z,5.50
2022-10-26T01:39:53.930Z,5.68
2022-10-26T01:43:00.707Z,6.50
2022-10-26T01:46:08.438Z,5.60
2022-10-26T01:49:14.328Z,5.70
2022-10-26T01:52:19.984Z,6.55
2022-10-26T01:55:41.986Z,6.53
2022-10-26T01:59:13.404Z,6.15
2022-10-26T02:02:39.591Z,6.38
2022-10-26T02:06:05.738Z,6.40
2022-10-26T02:09:20.301Z,6.35
2022-10-26T02:12:34.898Z,7.47
2022-10-26T02:15:47.450Z,7.28
2022-10-26T02:19:02.332Z,7.70
2022-10-26T02:22:14.014Z,6.95
2022-10-26T02:25:20.273Z,7.72
2022-10-26T02:28:30.289Z,7.57
2022-10-26T02:31:35.382Z,8.60
2022-10-26T02:34:43.217Z,8.73
2022-10-26T02:37:48.708Z,7.90
2022-10-26T02:40:53.723Z,10.02
2022-10-26T02:44:05.828Z,8.95
2022-10-26T02:47:09.923Z,9.40
2022-10-26T02:50:16.234Z,8.70
2022-10-26T02:53:27.269Z,7.35
2022-10-26T02:56:35.860Z,7.90
2022-10-26T02:59:42.584Z,7.82
2022-10-26T03:02:52.515Z,7.80
2022-10-26T03:05:58.297Z,7.95
2022-10-26T03:09:01.915Z,7.50
2022-10-26T03:12:06.166Z,7.78
2022-10-26T03:15:10.878Z,8.18
2022-10-26T03:18:14.544Z,8.35
2022-10-26T03:21:20.045Z,7.88
2022-10-26T03:24:23.694Z,8.65
2022-10-26T03:27:27.518Z,8.30
2022-10-26T03:30:32.699Z,8.90
2022-10-26T03:37:01.746Z,8.50
2022-10-26T03:40:05.973Z,8.02
2022-10-26T03:43:09.522Z,8.50
2022-10-26T03:46:13.096Z,7.93
2022-10-26T03:49:16.709Z,8.85
2022-10-26T03:52:23.558Z,9.05
2022-10-26T03:55:27.206Z,8.25
2022-10-26T03:58:30.806Z,8.35
2022-10-26T04:01:34.521Z,8.23
2022-10-26T04:04:38.273Z,8.13
2022-10-26T04:07:43.863Z,8.60
2022-10-26T04:10:47.900Z,8.18
2022-10-26T04:13:51.549Z,7.85
2022-10-26T04:16:55.229Z,8.45
2022-10-26T04:19:58.901Z,8.88
2022-10-26T04:23:06.218Z,7.93
2022-10-26T04:26:09.913Z,8.82
2022-10-26T04:29:13.603Z,8.57
2022-10-26T04:32:17.284Z,8.13
2022-10-26T04:35:20.866Z,8.70
2022-10-26T04:38:26.454Z,7.50
2022-10-26T04:41:30.029Z,8.43
2022-10-26T04:44:34.051Z,8.73
2022-10-26T04:50:41.841Z,8.00
2022-10-26T04:53:47.769Z,8.68
2022-10-26T04:56:52.922Z,8.27
2022-10-26T04:59:56.587Z,8.00
2022-10-26T05:03:04.599Z,9.23
2022-10-26T05:06:08.585Z,8.05
2022-10-26T05:12:17.577Z,8.13
2022-10-26T05:15:21.282Z,8.50
2022-10-26T05:18:25.727Z,8.65
2022-10-26T05:21:29.329Z,8.98
2022-10-26T05:24:34.853Z,7.60
2022-10-26T05:27:38.482Z,7.35
2022-10-26T05:30:42.983Z,7.88
2022-10-26T05:33:49.629Z,8.23
2022-10-26T05:36:55.051Z,8.02
2022-10-26T05:40:00.580Z,7.97
2022-10-26T05:43:04.246Z,8.05
2022-10-26T05:46:07.858Z,7.47
2022-10-26T05:49:11.465Z,7.47
2022-10-26T05:52:15.058Z,6.93
2022-10-26T05:55:21.611Z,7.10
2022-10-26T05:58:26.261Z,7.47
2022-10-26T06:01:37.531Z,7.60
2022-10-26T06:04:47.785Z,7.25
2022-10-26T06:07:52.298Z,7.80
2022-10-26T06:11:00.709Z,6.95
2022-10-26T06:14:05.043Z,7.05
2022-10-26T06:17:31.824Z,6.95
2022-10-26T06:20:49.943Z,6.97
2022-10-26T06:24:00.034Z,7.10
2022-10-26T06:27:17.137Z,7.13
2022-10-26T06:30:23.325Z,6.82
2022-10-26T06:33:29.939Z,6.25
2022-10-26T06:36:35.481Z,6.68
2022-10-26T06:39:44.834Z,6.50
2022-10-26T06:42:51.209Z,6.70
2022-10-26T06:46:04.546Z,6.32
2022-10-26T06:49:20.428Z,6.43
2022-10-26T06:52:33.218Z,5.63
2022-10-26T06:55:42.539Z,6.32
2022-10-26T06:58:50.389Z,6.15
2022-10-26T07:01:54.138Z,6.30
2022-10-26T07:04:57.873Z,6.05
2022-10-26T07:08:01.541Z,5.78
2022-10-26T07:11:05.617Z,6.47
2022-10-26T07:14:11.197Z,6.13
2022-10-26T07:17:16.360Z,6.40
2022-10-26T07:20:22.375Z,6.13
2022-10-26T07:23:26.146Z,6.07
2022-10-26T07:26:29.968Z,7.28
2022-10-26T07:29:36.645Z,7.13
2022-10-26T07:32:40.280Z,6.50
2022-10-26T07:35:43.977Z,7.05
2022-10-26T07:38:47.655Z,8.55
2022-10-26T07:41:51.235Z,6.55
2022-10-26T07:44:56.783Z,6.65
2022-10-26T07:48:00.453Z,6.43
2022-10-26T07:51:04.376Z,6.43
2022-10-26T07:54:08.266Z,5.60
2022-10-26T07:57:11.912Z,5.35
2022-10-26T08:00:18.294Z,5.15
2022-10-26T08:03:22.193Z,5.57
2022-10-26T08:06:26.301Z,6.43
2022-10-26T08:12:33.278Z,5.50
2022-10-26T08:15:39.113Z,4.65
2022-10-26T08:18:43.093Z,4.97
2022-10-26T08:24:50.131Z,4.93
2022-10-26T08:27:53.741Z,4.80
2022-10-26T08:30:59.300Z,5.25
2022-10-26T08:34:03.823Z,5.13
2022-10-26T08:37:07.439Z,4.30
2022-10-26T08:40:17.109Z,4.95
2022-10-26T08:43:28.727Z,7.38
2022-10-26T08:46:37.521Z,3.83
2022-10-26T08:49:46.787Z,3.83
2022-10-26T08:52:55.166Z,4.05
2022-10-26T08:56:03.111Z,4.50
2022-10-26T08:59:13.818Z,4.43
2022-10-26T09:02:19.902Z,4.10
2022-10-26T09:05:36.742Z,3.83
2022-10-26T09:08:52.366Z,4.55
2022-10-26T09:12:06.713Z,4.03
2022-10-26T09:15:17.343Z,4.05
2022-10-26T09:18:33.738Z,4.13
2022-10-26T09:21:48.686Z,4.18
2022-10-26T09:24:56.358Z,4.50
2022-10-26T09:28:02.809Z,3.58
2022-10-26T09:31:07.039Z,3.67
2022-10-26T09:34:20.291Z,4.35
2022-10-26T09:37:28.221Z,3.60
2022-10-26T09:40:39.423Z,3.22
2022-10-26T09:43:49.500Z,2.97
2022-10-26T09:46:57.811Z,3.47
2022-10-26T09:50:15.080Z,2.50
2022-10-26T09:53:18.727Z,3.20
2022-10-26T09:56:22.514Z,2.33
2022-10-26T09:59:27.291Z,2.38
2022-10-26T10:02:39.309Z,1.95
2022-10-26T10:05:53.061Z,2.05
2022-10-26T10:09:13.022Z,2.33
2022-10-26T10:12:22.241Z,2.60
2022-10-26T10:15:27.498Z,2.20
2022-10-26T10:18:31.636Z,2.10
2022-10-26T10:21:40.122Z,2.30
2022-10-26T10:24:53.993Z,2.35
2022-10-26T10:27:57.634Z,2.63
2022-10-26T10:31:02.890Z,2.70
2022-10-26T10:34:17.798Z,2.03
2022-10-26T10:37:28.794Z,2.20
2022-10-26T10:40:33.275Z,2.38
2022-10-26T10:43:37.210Z,2.28
2022-10-26T10:49:51.527Z,2.45
2022-10-26T10:53:16.146Z,2.05
2022-10-26T10:56:36.009Z,2.00
2022-10-26T11:00:03.582Z,2.70
2022-10-26T11:03:34.726Z,2.75
2022-10-26T11:06:40.342Z,1.83
2022-10-26T11:09:48.389Z,2.45
2022-10-26T11:12:56.602Z,2.20
2022-10-26T11:16:04.055Z,2.25
2022-10-26T11:19:15.374Z,1.70
2022-10-26T11:22:23.114Z,2.20
2022-10-26T11:25:32.330Z,2.08
2022-10-26T11:28:42.483Z,2.55
2022-10-26T11:31:51.293Z,2.35
2022-10-26T11:34:59.930Z,2.42
2022-10-26T11:38:09.762Z,2.15
2022-10-26T11:41:22.817Z,2.58
2022-10-26T11:44:31.595Z,2.92
2022-10-26T11:47:42.069Z,2.42
2022-10-26T11:50:51.811Z,3.00
2022-10-26T11:53:57.018Z,2.50
2022-10-26T11:57:03.718Z,2.40
2022-10-26T12:00:10.864Z,2.53
2022-10-26T12:03:21.226Z,2.10
2022-10-26T12:06:28.693Z,2.03
2022-10-26T12:09:36.275Z,2.03
2022-10-26T12:12:47.721Z,2.67
2022-10-26T12:16:03.389Z,2.88
2022-10-26T12:19:15.464Z,2.45
2022-10-26T12:22:21.809Z,2.60
2022-10-26T12:25:25.552Z,2.45
2022-10-26T12:28:43.304Z,2.53
2022-10-26T12:31:46.979Z,3.17
2022-10-26T12:35:05.137Z,2.80
2022-10-26T12:38:48.900Z,3.38
2022-10-26T12:41:58.246Z,2.80
2022-10-26T12:45:20.093Z,2.90
2022-10-26T12:48:38.521Z,2.30
2022-10-26T12:51:44.883Z,3.15
2022-10-26T12:55:01.613Z,2.92
2022-10-26T12:58:40.670Z,2.70
2022-10-26T13:02:18.230Z,3.03
2022-10-26T13:05:45.509Z,2.80
2022-10-26T13:08:56.238Z,2.90
2022-10-26T13:12:05.433Z,2.85
2022-10-26T13:15:25.671Z,2.80
2022-10-26T13:18:31.902Z,3.00
2022-10-26T13:21:50.088Z,3.13
2022-10-26T13:24:58.398Z,3.33
2022-10-26T13:28:05.503Z,3.63
2022-10-26T13:31:14.268Z,3.50
2022-10-26T13:34:21.603Z,2.95
2022-10-26T13:37:29.565Z,3.53
2022-10-26T13:40:33.841Z,3.28
2022-10-26T13:43:40.121Z,3.33
2022-10-26T13:46:43.964Z,3.10
2022-10-26T13:49:52.293Z,3.28
2022-10-26T13:52:59.897Z,3.25
2022-10-26T13:56:07.862Z,3.40
2022-10-26T13:59:14.171Z,2.88
2022-10-26T14:02:20.710Z,2.95
2022-10-26T14:05:26.402Z,2.78
2022-10-26T14:08:30.068Z,2.72
2022-10-26T14:11:37.216Z,2.40
2022-10-26T14:14:43.053Z,2.70
2022-10-26T14:17:52.073Z,2.67
2022-10-26T14:21:02.857Z,2.83
2022-10-26T14:24:08.929Z,2.60
2022-10-26T14:27:17.712Z,2.70
2022-10-26T14:30:25.954Z,3.05
2022-10-26T14:33:30.310Z,2.55
2022-10-26T14:36:40.116Z,2.40
2022-10-26T14:39:46.990Z,3.55
2022-10-26T14:42:54.249Z,2.67
2022-10-26T14:45:58.203Z,2.88
2022-10-26T14:49:03.678Z,2.60
2022-10-26T14:52:09.291Z,2.78
2022-10-26T14:55:16.401Z,3.05
2022-10-26T14:58:26.761Z,3.10
2022-10-26T15:01:36.866Z,2.55
2022-10-26T15:04:42.344Z,2.95
2022-10-26T15:07:48.360Z,2.90
2022-10-26T15:10:52.326Z,2.55
2022-10-26T15:13:57.037Z,2.75
2022-10-26T15:17:01.528Z,2.40
2022-10-26T15:20:07.333Z,2.53
2022-10-26T15:23:16.505Z,2.63
2022-10-26T15:26:20.418Z,2.67
2022-10-26T15:32:40.301Z,2.50
2022-10-26T15:35:44.128Z,2.67
2022-10-26T15:38:51.086Z,3.20
2022-10-26T15:41:55.329Z,2.95
2022-10-26T15:45:00.177Z,2.50
2022-10-26T15:48:20.465Z,3.45
2022-10-26T15:51:24.484Z,2.35
2022-10-26T15:57:33.473Z,2.13
2022-10-26T16:00:37.187Z,2.63
2022-10-26T16:03:40.870Z,2.75
2022-10-26T16:06:45.706Z,2.55
2022-10-26T16:09:51.497Z,2.42
2022-10-26T16:12:55.238Z,2.50
2022-10-26T16:15:59.154Z,2.63
2022-10-26T16:22:26.718Z,2.83
2022-10-26T16:25:32.281Z,3.30
2022-10-26T16:28:36.068Z,2.80
2022-10-26T16:34:43.257Z,2.83
2022-10-26T16:37:47.447Z,2.92
2022-10-26T16:41:02.232Z,3.33
2022-10-26T16:44:06.181Z,2.63
2022-10-26T16:50:14.587Z,2.67
2022-10-26T16:53:18.727Z,3.10
2022-10-26T16:56:25.768Z,3.10
2022-10-26T16:59:29.691Z,2.85
2022-10-26T17:05:36.999Z,2.55
2022-10-26T17:08:40.883Z,3.10
2022-10-26T17:14:50.745Z,2.90
2022-10-26T17:17:54.359Z,2.90
2022-10-26T17:20:58.068Z,3.78
2022-10-26T17:24:01.828Z,2.97
2022-10-26T17:27:07.620Z,3.38
2022-10-26T17:30:12.081Z,3.10
2022-10-26T17:33:15.788Z,3.15
2022-10-26T17:36:21.584Z,3.50
2022-10-26T17:39:25.221Z,4.30
2022-10-26T17:42:30.781Z,3.80
2022-10-26T17:45:34.366Z,4.32
2022-10-26T17:48:38.094Z,4.80
2022-10-26T17:51:41.716Z,4.75
2022-10-26T17:54:45.347Z,6.15
2022-10-26T17:57:51.135Z,6.10
2022-10-26T18:00:55.000Z,5.90
2022-10-26T18:03:59.813Z,4.85
2022-10-26T18:07:03.603Z,4.50
2022-10-26T18:10:19.932Z,4.55
2022-10-26T18:13:35.149Z,5.07
2022-10-26T18:16:38.766Z,4.13
2022-10-26T18:19:42.386Z,4.70
2022-10-26T18:22:45.994Z,5.28
2022-10-26T18:25:49.621Z,5.25
2022-10-26T18:28:56.151Z,5.45
2022-10-26T18:31:59.812Z,4.78
2022-10-26T18:35:03.405Z,4.40
2022-10-26T18:38:07.033Z,4.07
2022-10-26T18:41:13.214Z,4.38
2022-10-26T18:44:19.334Z,4.00
2022-10-26T18:47:22.941Z,5.18
2022-10-26T18:50:26.537Z,3.75
2022-10-26T18:53:30.169Z,3.97
2022-10-26T18:56:33.835Z,5.07
2022-10-26T18:59:39.313Z,3.33
2022-10-26T19:02:42.960Z,3.75
2022-10-26T19:05:46.542Z,3.78
2022-10-26T19:08:50.519Z,3.75
2022-10-26T19:14:59.426Z,4.65
2022-10-26T19:18:03.193Z,4.45
2022-10-26T19:21:08.609Z,4.38
2022-10-26T19:24:14.321Z,4.05
2022-10-26T19:30:43.379Z,4.15
2022-10-26T19:33:47.010Z,4.10
2022-10-26T19:36:51.991Z,4.05
2022-10-26T19:39:55.645Z,4.32
2022-10-26T19:42:59.240Z,4.40
2022-10-26T19:46:10.659Z,4.35
2022-10-26T19:49:16.817Z,4.45
2022-10-26T19:52:20.440Z,4.15
2022-10-26T19:55:24.063Z,4.97
2022-10-26T19:58:29.254Z,3.95
2022-10-26T20:01:34.884Z,3.72
2022-10-26T20:04:39.633Z,3.55
2022-10-26T20:07:43.258Z,3.17
2022-10-26T20:10:47.513Z,3.53
2022-10-26T20:13:51.141Z,3.38
2022-10-26T20:16:56.729Z,3.33
2022-10-26T20:20:00.326Z,3.75
2022-10-26T20:23:03.941Z,3.22
2022-10-26T20:26:07.802Z,3.63
2022-10-26T20:32:16.849Z,3.47
2022-10-26T20:35:20.543Z,3.75
2022-10-26T20:38:24.913Z,3.88
2022-10-26T20:41:29.249Z,4.75
2022-10-26T20:44:36.587Z,3.63
2022-10-26T20:47:42.900Z,4.13
2022-10-26T20:50:51.224Z,3.30
2022-10-26T20:54:02.964Z,3.33
2022-10-26T20:57:09.536Z,3.72
2022-10-26T21:00:14.451Z,3.80
2022-10-26T21:03:20.010Z,3.47
2022-10-26T21:06:24.643Z,2.97
2022-10-26T21:09:29.116Z,3.88
2022-10-26T21:12:34.348Z,3.95
2022-10-26T21:15:38.016Z,3.33
2022-10-26T21:18:43.637Z,3.05
2022-10-26T21:21:47.465Z,3.28
2022-10-26T21:24:51.070Z,3.03
2022-10-26T21:27:57.329Z,3.70
2022-10-26T21:31:03.267Z,3.22
2022-10-26T21:34:09.191Z,2.75
2022-10-26T21:37:12.843Z,3.20
2022-10-26T21:40:16.829Z,3.17
2022-10-26T21:46:23.830Z,3.17
2022-10-26T21:49:29.399Z,3.28
2022-10-26T21:52:33.025Z,3.33
2022-10-26T21:55:36.640Z,3.53
2022-10-26T21:58:40.661Z,4.20
2022-10-26T22:01:44.356Z,3.17
2022-10-26T22:04:49.921Z,3.53
2022-10-26T22:07:54.408Z,3.47
2022-10-26T22:10:58.490Z,3.13
2022-10-26T22:14:02.174Z,3.08
2022-10-26T22:17:05.793Z,3.17
2022-10-26T22:20:13.611Z,3.97
2022-10-26T22:23:17.225Z,3.08
2022-10-26T22:26:23.048Z,3.25
2022-10-26T22:29:26.737Z,3.00
2022-10-26T22:32:30.358Z,4.07
2022-10-26T22:35:35.921Z,3.88
2022-10-26T22:38:40.197Z,3.28
2022-10-26T22:41:43.801Z,3.40
2022-10-26T22:44:47.432Z,3.05
2022-10-26T22:47:51.050Z,3.58
2022-10-26T22:50:56.708Z,3.08
2022-10-26T22:54:01.843Z,3.65
2022-10-26T22:57:05.624Z,3.25
2022-10-26T23:00:10.741Z,3.40
2022-10-26T23:03:14.383Z,3.10
2022-10-26T23:06:21.254Z,3.47
2022-10-26T23:09:24.858Z,3.92
2022-10-26T23:12:28.503Z,3.45
2022-10-26T23:15:32.121Z,3.25
2022-10-26T23:18:36.154Z,3.45
2022-10-26T23:21:41.678Z,3.42
2022-10-26T23:24:45.301Z,3.35
2022-10-26T23:27:48.873Z,3.20
2022-10-26T23:30:52.607Z,3.50
2022-10-26T23:33:57.449Z,4.32
2022-10-26T23:37:02.973Z,3.75
2022-10-26T23:40:08.238Z,4.10
2022-10-26T23:43:11.874Z,4.07
2022-10-26T23:46:15.557Z,3.55
2022-10-26T23:49:19.569Z,4.00
2022-10-26T23:55:28.874Z,3.60
